createdAt,value
2023-02-24T00:02:06.343Z,74.39
2023-02-24T00:04:36.403Z,74.23
2023-02-24T00:07:03.205Z,74.33
2023-02-24T00:09:31.162Z,74.34
2023-02-24T00:12:03.361Z,74.42
2023-02-24T00:14:33.410Z,74.37
2023-02-24T00:17:00.726Z,74.42
2023-02-24T00:19:32.809Z,74.47
2023-02-24T00:22:06.216Z,74.44
2023-02-24T00:24:33.683Z,74.29
2023-02-24T00:27:07.817Z,74.25
2023-02-24T00:29:37.815Z,74.49
2023-02-24T00:32:08.481Z,74.72
2023-02-24T00:34:36.722Z,74.64
2023-02-24T00:37:07.049Z,74.67
2023-02-24T00:39:35.011Z,74.72
2023-02-24T00:42:06.722Z,74.96
2023-02-24T00:44:54.273Z,74.94
2023-02-24T00:47:22.523Z,74.89
2023-02-24T00:49:50.407Z,75.05
2023-02-24T00:52:19.852Z,75.09
2023-02-24T00:54:49.139Z,74.86
2023-02-24T00:57:18.382Z,74.76
2023-02-24T00:59:48.067Z,74.66
2023-02-24T01:02:20.446Z,74.41
2023-02-24T01:04:47.462Z,74.25
2023-02-24T01:07:14.204Z,74.38
2023-02-24T01:09:44.283Z,74.30
2023-02-24T01:12:22.193Z,74.25
2023-02-24T01:14:52.311Z,74.07
2023-02-24T01:17:22.853Z,74.08
2023-02-24T01:19:52.282Z,74.09
2023-02-24T01:22:23.930Z,73.83
2023-02-24T01:24:50.873Z,73.81
2023-02-24T01:27:19.435Z,73.88
2023-02-24T01:29:47.359Z,73.84
2023-02-24T01:32:17.930Z,73.88
2023-02-24T01:34:45.079Z,73.87
2023-02-24T01:37:16.507Z,74.44
2023-02-24T01:39:44.857Z,74.40
2023-02-24T01:42:16.707Z,74.67
2023-02-24T01:44:43.815Z,75.03
2023-02-24T01:47:14.561Z,74.94
2023-02-24T01:49:45.091Z,74.65
2023-02-24T01:52:20.243Z,74.55
2023-02-24T01:54:55.360Z,74.17
2023-02-24T01:57:28.354Z,74.53
2023-02-24T02:00:11.240Z,74.29
2023-02-24T02:02:45.126Z,74.25
2023-02-24T02:05:12.207Z,74.50
2023-02-24T02:07:40.812Z,74.86
2023-02-24T02:10:10.871Z,74.82
2023-02-24T02:12:44.576Z,74.99
2023-02-24T02:15:21.422Z,74.67
2023-02-24T02:18:12.982Z,74.52
2023-02-24T02:20:58.437Z,74.69
2023-02-24T02:23:49.791Z,74.85
2023-02-24T02:26:47.536Z,75.29
2023-02-24T02:29:26.388Z,75.04
2023-02-24T02:32:18.478Z,74.61
2023-02-24T02:35:04.219Z,74.57
2023-02-24T02:37:38.091Z,74.65
2023-02-24T02:40:15.586Z,74.70
2023-02-24T02:42:45.218Z,74.79
2023-02-24T02:45:27.849Z,74.61
2023-02-24T02:48:16.329Z,74.45
2023-02-24T02:50:50.159Z,74.37
2023-02-24T02:53:31.483Z,74.70
2023-02-24T02:56:09.752Z,74.86
2023-02-24T02:58:41.014Z,74.79
2023-02-24T03:01:16.508Z,74.63
2023-02-24T03:03:49.713Z,74.78
2023-02-24T03:06:30.332Z,74.92
2023-02-24T03:09:23.981Z,75.25
2023-02-24T03:12:08.011Z,75.48
2023-02-24T03:14:46.155Z,74.75
2023-02-24T03:17:21.721Z,74.85
2023-02-24T03:20:00.554Z,74.76
2023-02-24T03:22:37.611Z,74.94
2023-02-24T03:25:12.367Z,75.00
2023-02-24T03:27:53.385Z,75.42
2023-02-24T03:30:26.920Z,75.39
2023-02-24T03:33:01.320Z,75.45
2023-02-24T03:35:37.954Z,74.83
2023-02-24T03:38:06.495Z,74.85
2023-02-24T03:40:36.120Z,74.83
2023-02-24T03:43:12.259Z,74.68
2023-02-24T03:45:41.888Z,74.81
2023-02-24T03:48:12.085Z,74.41
2023-02-24T03:50:45.385Z,74.77
2023-02-24T03:53:41.655Z,75.31
2023-02-24T03:56:17.609Z,75.34
2023-02-24T03:59:12.802Z,75.20
2023-02-24T04:01:39.528Z,75.34
2023-02-24T04:04:20.827Z,75.52
2023-02-24T04:06:59.563Z,75.25
2023-02-24T04:10:04.742Z,75.84
2023-02-24T04:12:47.007Z,75.50
2023-02-24T04:15:38.151Z,75.33
2023-02-24T04:18:23.101Z,75.25
2023-02-24T04:20:53.646Z,75.29
2023-02-24T04:23:29.119Z,75.07
2023-02-24T04:25:58.432Z,75.08
2023-02-24T04:28:29.870Z,75.08
2023-02-24T04:31:06.187Z,74.92
2023-02-24T04:33:34.732Z,75.20
2023-02-24T04:36:01.475Z,75.14
2023-02-24T04:38:31.462Z,75.27
2023-02-24T04:40:58.317Z,75.11
2023-02-24T04:43:24.993Z,75.00
2023-02-24T04:45:51.702Z,74.87
2023-02-24T04:48:20.325Z,75.15
2023-02-24T04:50:55.075Z,75.51
2023-02-24T04:53:28.284Z,75.51
2023-02-24T04:55:56.335Z,75.66
2023-02-24T04:58:28.062Z,75.55
2023-02-24T05:00:56.069Z,75.64
2023-02-24T05:03:28.384Z,75.51
2023-02-24T05:06:00.062Z,76.16
2023-02-24T05:08:29.066Z,75.89
2023-02-24T05:10:57.464Z,76.27
2023-02-24T05:13:27.434Z,76.09
2023-02-24T05:15:58.901Z,76.19
2023-02-24T05:18:31.505Z,75.95
2023-02-24T05:21:16.769Z,76.21
2023-02-24T05:23:46.772Z,76.17
2023-02-24T05:26:17.047Z,76.40
2023-02-24T05:28:49.522Z,76.35
2023-02-24T05:31:22.010Z,76.58
2023-02-24T05:33:54.662Z,76.27
2023-02-24T05:36:22.224Z,76.61
2023-02-24T05:38:56.590Z,76.12
2023-02-24T05:41:25.118Z,76.00
2023-02-24T05:43:55.548Z,75.82
2023-02-24T05:46:30.063Z,75.55
2023-02-24T05:49:02.659Z,75.41
2023-02-24T05:51:36.672Z,75.87
2023-02-24T05:54:07.674Z,75.49
2023-02-24T05:56:36.080Z,75.62
2023-02-24T05:59:05.370Z,75.34
2023-02-24T06:01:35.293Z,75.34
2023-02-24T06:04:06.557Z,75.40
2023-02-24T06:06:38.797Z,75.74
2023-02-24T06:09:12.731Z,75.54
2023-02-24T06:11:43.282Z,75.71
2023-02-24T06:14:11.355Z,75.89
2023-02-24T06:16:40.804Z,75.97
2023-02-24T06:19:08.587Z,76.07
2023-02-24T06:21:37.213Z,76.11
2023-02-24T06:24:05.770Z,75.97
2023-02-24T06:26:37.283Z,76.06
2023-02-24T06:29:05.608Z,76.57
2023-02-24T06:31:32.423Z,77.30
2023-02-24T06:33:59.130Z,77.42
2023-02-24T06:36:25.778Z,77.38
2023-02-24T06:38:53.229Z,77.98
2023-02-24T06:41:21.065Z,78.18
2023-02-24T06:43:50.592Z,77.98
2023-02-24T06:46:17.336Z,77.62
2023-02-24T06:48:44.045Z,77.33
2023-02-24T06:51:18.748Z,77.74
2023-02-24T06:53:45.647Z,77.55
2023-02-24T06:56:15.166Z,77.76
2023-02-24T06:58:43.852Z,77.45
2023-02-24T07:01:16.466Z,77.61
2023-02-24T07:04:02.839Z,77.09
2023-02-24T07:06:31.762Z,77.15
2023-02-24T07:08:59.222Z,77.14
2023-02-24T07:11:29.067Z,77.45
2023-02-24T07:13:57.587Z,77.02
2023-02-24T07:16:28.983Z,77.20
2023-02-24T07:18:57.713Z,77.03
2023-02-24T07:21:26.739Z,77.02
2023-02-24T07:23:58.820Z,76.64
2023-02-24T07:26:27.929Z,76.82
2023-02-24T07:28:56.741Z,76.81
2023-02-24T07:31:26.184Z,76.91
2023-02-24T07:33:55.759Z,76.81
2023-02-24T07:36:30.432Z,76.82
2023-02-24T07:39:01.697Z,76.70
2023-02-24T07:41:30.429Z,76.83
2023-02-24T07:43:59.760Z,76.51
2023-02-24T07:46:31.329Z,76.28
2023-02-24T07:48:59.923Z,76.70
2023-02-24T07:51:27.955Z,76.84
2023-02-24T07:53:59.727Z,76.41
2023-02-24T07:56:46.031Z,76.40
2023-02-24T07:59:18.774Z,76.79
2023-02-24T08:01:49.888Z,77.03
2023-02-24T08:04:18.980Z,77.01
2023-02-24T08:06:50.324Z,76.77
2023-02-24T08:09:21.189Z,77.17
2023-02-24T08:11:52.487Z,77.24
2023-02-24T08:14:27.366Z,77.49
2023-02-24T08:16:59.692Z,77.48
2023-02-24T08:19:39.542Z,77.97
2023-02-24T08:22:16.973Z,77.93
2023-02-24T08:24:50.208Z,77.77
2023-02-24T08:27:22.475Z,77.55
2023-02-24T08:30:03.058Z,77.89
2023-02-24T08:32:52.687Z,77.87
2023-02-24T08:35:21.776Z,77.81
2023-02-24T08:37:52.093Z,77.83
2023-02-24T08:40:33.312Z,77.75
2023-02-24T08:43:17.892Z,78.13
2023-02-24T08:46:21.569Z,78.10
2023-02-24T08:48:55.698Z,77.75
2023-02-24T08:51:29.148Z,77.92
2023-02-24T08:54:11.434Z,78.33
2023-02-24T08:56:43.813Z,77.74
2023-02-24T08:59:29.340Z,77.66
2023-02-24T09:02:34.950Z,77.71
2023-02-24T09:05:13.110Z,77.65
2023-02-24T09:07:44.097Z,77.40
2023-02-24T09:10:20.231Z,77.40
2023-02-24T09:12:49.133Z,77.11
2023-02-24T09:15:15.922Z,77.02
2023-02-24T09:17:45.121Z,77.20
2023-02-24T09:20:42.110Z,77.02
2023-02-24T09:23:20.223Z,76.86
2023-02-24T09:25:54.466Z,76.93
2023-02-24T09:28:26.728Z,76.71
2023-02-24T09:30:58.845Z,76.79
2023-02-24T09:33:39.093Z,76.56
2023-02-24T09:36:12.975Z,76.45
2023-02-24T09:38:59.712Z,76.53
2023-02-24T09:42:08.165Z,76.66
2023-02-24T09:44:42.563Z,76.67
2023-02-24T09:47:56.914Z,76.46
2023-02-24T09:51:04.634Z,76.24
2023-02-24T09:53:52.632Z,76.29
2023-02-24T09:56:37.365Z,76.60
2023-02-24T09:59:26.504Z,75.97
2023-02-24T10:02:05.412Z,75.77
2023-02-24T10:04:49.399Z,76.23
2023-02-24T10:07:22.992Z,75.91
2023-02-24T10:10:34.180Z,75.96
2023-02-24T10:13:14.490Z,76.08
2023-02-24T10:15:58.460Z,74.95
2023-02-24T10:18:31.340Z,74.77
2023-02-24T10:21:33.167Z,74.99
2023-02-24T10:24:29.484Z,75.24
2023-02-24T10:27:18.307Z,75.08
2023-02-24T10:30:05.878Z,73.98
2023-02-24T10:32:48.052Z,74.17
2023-02-24T10:35:25.993Z,73.13
2023-02-24T10:37:53.999Z,73.68
2023-02-24T10:40:43.833Z,73.65
2023-02-24T10:43:17.945Z,73.13
2023-02-24T10:45:57.528Z,72.89
2023-02-24T10:48:43.598Z,72.46
2023-02-24T10:51:31.963Z,72.26
2023-02-24T10:54:33.633Z,70.91
2023-02-24T10:57:15.397Z,71.50
2023-02-24T11:00:10.947Z,71.38
2023-02-24T11:03:06.972Z,71.26
2023-02-24T11:06:04.906Z,70.98
2023-02-24T11:08:48.562Z,70.98
2023-02-24T11:11:51.157Z,70.92
2023-02-24T11:14:39.048Z,69.51
2023-02-24T11:17:27.280Z,69.74
2023-02-24T11:20:01.657Z,69.67
2023-02-24T11:22:37.618Z,69.88
2023-02-24T11:25:12.931Z,70.53
2023-02-24T11:27:43.337Z,70.91
2023-02-24T11:30:22.304Z,70.98
2023-02-24T11:33:00.486Z,70.97
2023-02-24T11:35:42.768Z,70.79
2023-02-24T11:38:27.365Z,70.85
2023-02-24T11:41:09.471Z,70.58
2023-02-24T11:43:45.392Z,70.54
2023-02-24T11:46:24.149Z,70.33
2023-02-24T11:49:04.053Z,70.59
2023-02-24T11:51:37.589Z,70.42
2023-02-24T11:54:13.218Z,70.17
2023-02-24T11:56:46.148Z,70.34
2023-02-24T11:59:23.083Z,70.29
2023-02-24T12:01:55.590Z,70.35
2023-02-24T12:04:35.252Z,70.48
2023-02-24T12:07:07.652Z,70.18
2023-02-24T12:09:54.859Z,69.92
2023-02-24T12:12:44.077Z,70.15
2023-02-24T12:15:24.598Z,69.99
2023-02-24T12:18:01.824Z,70.25
2023-02-24T12:20:40.509Z,69.96
2023-02-24T12:23:07.159Z,70.23
2023-02-24T12:26:06.930Z,70.00
2023-02-24T12:29:18.758Z,69.48
2023-02-24T12:32:01.898Z,70.04
2023-02-24T12:34:47.264Z,69.97
2023-02-24T12:37:30.659Z,70.17
2023-02-24T12:40:18.577Z,70.18
2023-02-24T12:43:02.146Z,70.51
2023-02-24T12:45:45.230Z,70.31
2023-02-24T12:48:59.235Z,70.65
2023-02-24T12:51:39.978Z,70.73
2023-02-24T12:54:22.868Z,71.07
2023-02-24T12:56:56.473Z,70.50
2023-02-24T12:59:31.544Z,70.44
2023-02-24T13:02:36.568Z,70.44
2023-02-24T13:05:11.675Z,70.54
2023-02-24T13:08:04.798Z,70.62
2023-02-24T13:10:46.472Z,71.28
2023-02-24T13:13:29.955Z,71.42
2023-02-24T13:16:00.216Z,71.52
2023-02-24T13:18:37.001Z,71.57
2023-02-24T13:21:18.971Z,71.65
2023-02-24T13:24:20.524Z,72.19
2023-02-24T13:26:49.598Z,72.09
2023-02-24T13:29:16.743Z,72.22
2023-02-24T13:31:50.843Z,72.15
2023-02-24T13:34:43.897Z,71.97
2023-02-24T13:37:14.278Z,72.02
2023-02-24T13:39:45.954Z,72.17
2023-02-24T13:42:28.663Z,72.72
2023-02-24T13:45:10.766Z,73.32
2023-02-24T13:48:11.041Z,72.69
2023-02-24T13:50:59.391Z,72.30
2023-02-24T13:53:44.163Z,72.43
2023-02-24T13:56:22.956Z,72.63
2023-02-24T13:58:59.728Z,72.41
2023-02-24T14:01:29.805Z,72.49
2023-02-24T14:04:08.386Z,72.74
2023-02-24T14:06:36.990Z,72.36
2023-02-24T14:09:07.438Z,72.51
2023-02-24T14:11:38.818Z,72.58
2023-02-24T14:14:06.175Z,72.71
2023-02-24T14:16:45.616Z,72.66
2023-02-24T14:19:17.366Z,72.76
2023-02-24T14:22:04.564Z,73.03
2023-02-24T14:24:31.258Z,72.91
2023-02-24T14:27:01.976Z,72.91
2023-02-24T14:29:43.679Z,73.13
2023-02-24T14:32:21.824Z,73.45
2023-02-24T14:34:48.851Z,73.21
2023-02-24T14:37:26.002Z,73.28
2023-02-24T14:39:58.367Z,73.34
2023-02-24T14:42:28.331Z,73.60
2023-02-24T14:44:59.289Z,73.34
2023-02-24T14:47:28.911Z,73.52
2023-02-24T14:50:04.417Z,73.75
2023-02-24T14:52:58.630Z,74.08
2023-02-24T14:55:31.029Z,73.90
2023-02-24T14:58:19.549Z,74.12
2023-02-24T15:00:51.110Z,74.08
2023-02-24T15:03:29.467Z,74.07
2023-02-24T15:06:00.611Z,74.42
2023-02-24T15:08:31.074Z,74.82
2023-02-24T15:11:00.832Z,75.13
2023-02-24T15:13:38.764Z,75.93
2023-02-24T15:16:21.275Z,76.34
2023-02-24T15:18:56.469Z,76.21
2023-02-24T15:21:52.646Z,76.29
2023-02-24T15:24:31.765Z,76.68
2023-02-24T15:27:13.844Z,77.11
2023-02-24T15:29:44.002Z,76.87
2023-02-24T15:32:18.057Z,77.20
2023-02-24T15:34:48.300Z,77.28
2023-02-24T15:37:38.330Z,77.41
2023-02-24T15:40:20.866Z,77.57
2023-02-24T15:43:12.198Z,78.06
2023-02-24T15:45:40.173Z,77.79
2023-02-24T15:48:22.451Z,78.48
2023-02-24T15:50:51.652Z,79.13
2023-02-24T15:53:21.011Z,78.64
2023-02-24T15:55:50.481Z,78.74
2023-02-24T15:58:20.754Z,78.85
2023-02-24T16:00:53.299Z,79.16
2023-02-24T16:03:22.564Z,78.97
2023-02-24T16:05:51.772Z,79.39
2023-02-24T16:08:20.076Z,79.49
2023-02-24T16:10:50.429Z,80.43
2023-02-24T16:13:21.585Z,80.08
2023-02-24T16:15:53.634Z,80.87
2023-02-24T16:18:25.432Z,81.27
2023-02-24T16:20:59.374Z,80.97
2023-02-24T16:23:28.341Z,81.29
2023-02-24T16:26:02.085Z,80.83
2023-02-24T16:28:32.428Z,81.28
2023-02-24T16:30:59.911Z,81.60
2023-02-24T16:33:28.311Z,81.71
2023-02-24T16:35:55.151Z,81.88
2023-02-24T16:38:27.988Z,81.94
2023-02-24T16:40:55.851Z,81.83
2023-02-24T16:43:22.708Z,82.10
2023-02-24T16:46:04.103Z,82.70
2023-02-24T16:48:37.265Z,82.82
2023-02-24T16:51:06.678Z,82.58
2023-02-24T16:53:36.435Z,83.22
2023-02-24T16:56:07.613Z,83.58
2023-02-24T16:58:36.616Z,83.45
2023-02-24T17:01:04.940Z,83.81
2023-02-24T17:03:39.269Z,83.46
2023-02-24T17:06:11.154Z,83.11
2023-02-24T17:08:43.720Z,83.06
2023-02-24T17:11:16.137Z,81.67
2023-02-24T17:13:49.798Z,82.02
2023-02-24T17:16:18.718Z,81.75
2023-02-24T17:18:47.992Z,81.91
2023-02-24T17:21:16.209Z,81.86
2023-02-24T17:23:42.957Z,81.93
2023-02-24T17:26:13.972Z,81.72
2023-02-24T17:28:46.488Z,82.26
2023-02-24T17:31:13.495Z,82.31
2023-02-24T17:33:41.048Z,82.56
2023-02-24T17:36:11.021Z,83.50
2023-02-24T17:38:40.863Z,83.22
2023-02-24T17:41:07.598Z,83.05
2023-02-24T17:43:36.511Z,83.27
2023-02-24T17:46:06.501Z,83.27
2023-02-24T17:48:38.186Z,82.89
2023-02-24T17:51:05.168Z,82.98
2023-02-24T17:53:32.988Z,82.99
2023-02-24T17:56:05.418Z,82.26
2023-02-24T17:58:33.030Z,81.99
2023-02-24T18:01:02.413Z,82.04
2023-02-24T18:03:32.508Z,81.88
2023-02-24T18:06:01.516Z,81.60
2023-02-24T18:08:29.741Z,81.62
2023-02-24T18:10:57.115Z,81.88
2023-02-24T18:13:23.807Z,81.56
2023-02-24T18:15:50.649Z,81.49
2023-02-24T18:18:19.553Z,81.33
2023-02-24T18:20:48.734Z,81.17
2023-02-24T18:23:17.818Z,81.48
2023-02-24T18:25:46.887Z,81.51
2023-02-24T18:28:13.670Z,81.49
2023-02-24T18:30:42.721Z,81.69
2023-02-24T18:33:09.684Z,81.69
2023-02-24T18:35:38.644Z,82.06
2023-02-24T18:38:08.047Z,82.00
2023-02-24T18:40:34.720Z,82.06
2023-02-24T18:43:01.693Z,81.91
2023-02-24T18:45:32.204Z,82.06
2023-02-24T18:48:03.675Z,81.88
2023-02-24T18:50:30.498Z,82.04
2023-02-24T18:52:57.307Z,82.29
2023-02-24T18:55:24.207Z,82.25
2023-02-24T18:57:53.328Z,82.37
2023-02-24T19:00:22.714Z,82.00
2023-02-24T19:02:52.469Z,82.15
2023-02-24T19:05:21.509Z,82.08
2023-02-24T19:07:48.252Z,81.49
2023-02-24T19:10:15.000Z,81.97
2023-02-24T19:12:44.100Z,81.75
2023-02-24T19:15:14.278Z,81.97
2023-02-24T19:17:40.978Z,81.63
2023-02-24T19:20:08.770Z,81.61
2023-02-24T19:22:37.728Z,81.42
2023-02-24T19:25:04.754Z,81.05
2023-02-24T19:27:31.494Z,81.47
2023-02-24T19:30:00.492Z,81.33
2023-02-24T19:32:29.669Z,81.72
2023-02-24T19:34:56.556Z,82.02
2023-02-24T19:37:23.313Z,81.71
2023-02-24T19:39:50.111Z,81.91
2023-02-24T19:42:21.318Z,82.23
2023-02-24T19:44:49.704Z,82.15
2023-02-24T19:47:19.392Z,82.05
2023-02-24T19:49:46.249Z,82.32
2023-02-24T19:52:15.333Z,81.97
2023-02-24T19:54:46.847Z,81.87
2023-02-24T19:57:13.514Z,81.76
2023-02-24T19:59:44.749Z,81.83
2023-02-24T20:02:11.480Z,81.97
2023-02-24T20:04:40.568Z,81.91
2023-02-24T20:07:07.366Z,82.29
2023-02-24T20:09:36.306Z,81.95
2023-02-24T20:12:03.080Z,81.96
2023-02-24T20:14:33.037Z,82.12
2023-02-24T20:16:59.729Z,82.07
2023-02-24T20:19:26.566Z,81.85
2023-02-24T20:21:54.082Z,82.07
2023-02-24T20:24:21.257Z,82.03
2023-02-24T20:26:51.128Z,81.79
2023-02-24T20:29:20.838Z,81.78
2023-02-24T20:31:50.501Z,82.05
2023-02-24T20:34:18.081Z,81.49
2023-02-24T20:36:45.075Z,81.34
2023-02-24T20:39:14.787Z,81.11
2023-02-24T20:41:42.153Z,81.28
2023-02-24T20:44:10.637Z,81.30
2023-02-24T20:46:37.708Z,81.69
2023-02-24T20:49:07.139Z,81.31
2023-02-24T20:51:37.140Z,81.14
2023-02-24T20:54:08.268Z,81.08
2023-02-24T20:56:39.899Z,81.34
2023-02-24T20:59:13.854Z,81.03
2023-02-24T21:01:43.779Z,80.80
2023-02-24T21:04:13.870Z,80.56
2023-02-24T21:06:40.932Z,80.31
2023-02-24T21:09:12.068Z,80.30
2023-02-24T21:11:41.766Z,80.02
2023-02-24T21:14:15.798Z,80.06
2023-02-24T21:16:42.886Z,79.95
2023-02-24T21:19:11.976Z,79.40
2023-02-24T21:21:38.637Z,79.18
2023-02-24T21:24:05.807Z,79.20
2023-02-24T21:26:34.753Z,79.10
2023-02-24T21:29:06.316Z,78.69
2023-02-24T21:31:33.319Z,78.31
2023-02-24T21:34:06.892Z,78.56
2023-02-24T21:36:33.644Z,78.40
2023-02-24T21:39:01.042Z,78.29
2023-02-24T21:41:27.820Z,78.24
2023-02-24T21:44:00.636Z,78.30
2023-02-24T21:46:28.682Z,78.51
2023-02-24T21:48:58.940Z,78.16
2023-02-24T21:51:32.068Z,78.82
2023-02-24T21:53:59.177Z,78.79
2023-02-24T21:56:29.022Z,78.93
2023-02-24T21:59:04.005Z,79.45
2023-02-24T22:01:33.396Z,79.29
2023-02-24T22:04:07.593Z,79.51
2023-02-24T22:06:36.704Z,79.31
2023-02-24T22:09:09.511Z,79.67
2023-02-24T22:11:43.367Z,79.24
2023-02-24T22:14:15.381Z,79.14
2023-02-24T22:16:49.473Z,79.30
2023-02-24T22:19:19.878Z,79.71
2023-02-24T22:21:46.748Z,79.64
2023-02-24T22:24:17.256Z,80.30
2023-02-24T22:26:44.692Z,79.76
2023-02-24T22:29:12.008Z,79.56
2023-02-24T22:31:47.665Z,79.62
2023-02-24T22:34:15.899Z,79.15
2023-02-24T22:36:42.953Z,79.34
2023-02-24T22:39:10.041Z,79.61
2023-02-24T22:41:39.824Z,79.89
2023-02-24T22:44:10.307Z,80.16
2023-02-24T22:46:41.976Z,80.01
2023-02-24T22:49:08.646Z,80.33
2023-02-24T22:51:40.137Z,80.12
2023-02-24T22:54:07.016Z,80.47
2023-02-24T22:56:37.995Z,80.67
2023-02-24T22:59:04.980Z,80.75
2023-02-24T23:01:34.942Z,80.99
2023-02-24T23:04:07.562Z,80.77
2023-02-24T23:06:37.816Z,81.17
2023-02-24T23:09:06.182Z,80.82
2023-02-24T23:11:41.488Z,80.35
2023-02-24T23:14:14.013Z,80.17
2023-02-24T23:16:42.501Z,80.36
2023-02-24T23:19:17.473Z,80.14
2023-02-24T23:21:47.271Z,80.14
2023-02-24T23:24:20.718Z,80.61
2023-02-24T23:26:51.427Z,80.44
2023-02-24T23:29:18.779Z,79.86
2023-02-24T23:31:50.663Z,79.53
2023-02-24T23:34:17.552Z,78.94
2023-02-24T23:36:47.527Z,79.54
2023-02-24T23:39:16.688Z,79.30
2023-02-24T23:41:45.956Z,79.21
2023-02-24T23:44:12.853Z,79.01
2023-02-24T23:46:41.755Z,78.85
2023-02-24T23:49:08.768Z,78.56
2023-02-24T23:51:47.718Z,79.35
2023-02-24T23:54:20.487Z,78.91
2023-02-24T23:56:49.538Z,78.86
2023-02-24T23:59:16.274Z,78.69
